Time;durP1;ratioP1;P1;durP2;ratioP2;P2;SDS_P1;SDS_P2;PMS_P1;PMS_P2;Temp;Humidity;BMP_temperature;BMP_pressure;BME280_temperature;BME280_humidity;BME280_pressure;Samples;Min_cycle;Max_cycle;Signal;HPM_P1;HPM_P2
2022/07/11 00:02:16;;;;;;;0.30;0.30;;;;;;;16.36;63.18;98729.25;4941819;29;20103;-86
2022/07/11 00:04:43;;;;;;;0.70;0.70;;;;;;;16.12;64.74;98713.22;4941593;29;20118;-86
2022/07/11 00:07:10;;;;;;;0.40;0.40;;;;;;;16.30;65.29;98726.44;4961944;28;20483;-86
2022/07/11 00:09:37;;;;;;;0.38;0.38;;;;;;;16.32;64.95;98719.13;4941332;28;20047;-86
2022/07/11 00:12:04;;;;;;;0.38;0.35;;;;;;;16.33;65.42;98718.09;4939991;29;20054;-86
2022/07/11 00:14:32;;;;;;;0.50;0.50;;;;;;;16.21;64.90;98700.53;4946647;29;20063;-86
2022/07/11 00:16:59;;;;;;;0.85;0.40;;;;;;;16.26;65.60;98708.63;4953852;28;20039;-86
2022/07/11 00:19:26;;;;;;;0.40;0.40;;;;;;;16.27;65.99;98710.22;4953225;28;20055;-85
2022/07/11 00:21:53;;;;;;;1.38;0.50;;;;;;;16.37;66.18;98728.22;4953540;28;20081;-86
2022/07/11 00:24:21;;;;;;;0.30;0.30;;;;;;;16.32;66.59;98713.03;4939503;28;20043;-86
2022/07/11 00:26:49;;;;;;;0.40;0.40;;;;;;;16.36;66.39;98723.97;4952287;29;20055;-86
2022/07/11 00:29:17;;;;;;;0.68;0.40;;;;;;;16.39;66.42;98723.53;4953673;29;20507;-85
2022/07/11 00:31:44;;;;;;;0.40;0.40;;;;;;;16.41;66.52;98722.25;4939025;28;20056;-86
2022/07/11 00:34:11;;;;;;;0.38;0.38;;;;;;;16.31;66.92;98708.72;4942555;29;20066;-86
2022/07/11 00:36:38;;;;;;;0.50;0.50;;;;;;;16.35;67.00;98714.41;4941564;29;20039;-87
2022/07/11 00:39:05;;;;;;;0.70;0.30;;;;;;;16.27;66.93;98711.03;4953435;29;20047;-86
2022/07/11 00:41:32;;;;;;;0.77;0.50;;;;;;;16.30;66.70;98721.16;4944579;28;20040;-86
2022/07/11 00:44:01;;;;;;;0.75;0.40;;;;;;;16.23;67.38;98715.13;4946662;28;20078;-86
2022/07/11 00:46:30;;;;;;;0.30;0.30;;;;;;;16.20;67.82;98710.31;4942122;29;20503;-86
2022/07/11 00:48:59;;;;;;;1.30;0.40;;;;;;;16.25;68.61;98707.81;4939268;29;20399;-86
2022/07/11 00:51:27;;;;;;;0.47;0.40;;;;;;;16.33;67.66;98723.38;4948149;29;20072;-86
2022/07/11 00:53:57;;;;;;;0.30;0.30;;;;;;;16.32;67.88;98705.88;4952124;29;20507;-85
2022/07/11 00:56:29;;;;;;;0.30;0.30;;;;;;;16.30;67.47;98705.28;4952704;28;20463;-85
2022/07/11 00:58:58;;;;;;;0.65;0.40;;;;;;;16.38;68.16;98722.72;4949964;28;20047;-86
2022/07/11 01:01:26;;;;;;;0.25;0.25;;;;;;;16.38;67.58;98721.91;4938984;28;20044;-86
2022/07/11 01:03:53;;;;;;;0.30;0.30;;;;;;;16.31;67.69;98717.50;4934218;29;20043;-86
2022/07/11 01:06:21;;;;;;;0.30;0.30;;;;;;;16.38;67.65;98721.91;4946250;29;20142;-86
2022/07/11 01:08:48;;;;;;;0.43;0.20;;;;;;;16.31;68.06;98704.28;4945799;29;20044;-85
2022/07/11 01:11:18;;;;;;;0.40;0.40;;;;;;;16.30;68.17;98709.75;4933639;29;20606;-86
2022/07/11 01:13:46;;;;;;;0.32;0.32;;;;;;;16.33;67.98;98715.44;4947055;29;20074;-85
2022/07/11 01:16:22;;;;;;;0.30;0.30;;;;;;;16.35;68.67;98717.84;4933531;29;20054;-86
2022/07/11 01:18:53;;;;;;;0.40;0.38;;;;;;;16.33;68.92;98699.56;4937892;29;20040;-86
2022/07/11 01:21:30;;;;;;;0.28;0.28;;;;;;;16.39;69.23;98708.44;4949619;29;20047;-85
2022/07/11 01:24:00;;;;;;;0.38;0.38;;;;;;;16.29;68.16;98698.38;4940971;29;20048;-86
2022/07/11 01:26:28;;;;;;;0.50;0.40;;;;;;;16.26;68.45;98701.47;4940440;29;20075;-86
2022/07/11 01:29:05;;;;;;;1.35;0.50;;;;;;;16.22;68.13;98699.50;4938569;29;20534;-86
2022/07/11 01:31:32;;;;;;;0.47;0.47;;;;;;;16.19;68.28;98682.22;4939400;29;20152;-86
2022/07/11 01:33:59;;;;;;;0.22;0.22;;;;;;;16.24;69.34;98689.47;4943233;28;20551;-85
2022/07/11 01:36:26;;;;;;;0.85;0.35;;;;;;;16.21;69.28;98685.44;4933278;29;20836;-86
2022/07/11 01:38:52;;;;;;;0.45;0.45;;;;;;;16.24;69.12;98690.28;4938901;29;20047;-86
2022/07/11 01:41:19;;;;;;;0.22;0.22;;;;;;;16.30;69.39;98693.88;4946797;28;20071;-85
2022/07/11 01:43:46;;;;;;;0.50;0.50;;;;;;;16.29;69.57;98693.09;4939334;29;20043;-86
2022/07/11 01:46:13;;;;;;;0.40;0.40;;;;;;;16.29;68.52;98687.78;4945805;29;20055;-86
2022/07/11 01:48:39;;;;;;;0.22;0.22;;;;;;;16.23;68.62;98685.22;4938118;29;20129;-85
2022/07/11 01:51:06;;;;;;;0.32;0.32;;;;;;;16.21;69.32;98682.81;4954934;29;20094;-86
2022/07/11 01:53:33;;;;;;;0.20;0.20;;;;;;;16.25;68.98;98686.63;4956139;29;20067;-86
2022/07/11 01:55:59;;;;;;;0.50;0.50;;;;;;;16.16;68.47;98681.84;4956572;28;20075;-85
2022/07/11 01:58:45;;;;;;;0.47;0.47;;;;;;;16.23;69.12;98679.94;4940412;29;20091;-86
2022/07/11 02:01:14;;;;;;;0.50;0.50;;;;;;;16.25;68.43;98686.63;4943200;29;20048;-86
2022/07/11 02:03:41;;;;;;;0.40;0.40;;;;;;;16.26;68.51;98682.94;4953687;28;20055;-86
2022/07/11 02:06:09;;;;;;;0.50;0.50;;;;;;;16.28;69.09;98685.38;4955468;28;20040;-86
2022/07/11 02:08:36;;;;;;;1.02;0.40;;;;;;;16.22;69.67;98684.41;4947932;29;20078;-85
2022/07/11 02:11:03;;;;;;;1.45;0.77;;;;;;;16.29;68.63;98690.44;4941223;28;20080;-86
2022/07/11 02:13:30;;;;;;;0.50;0.50;;;;;;;16.22;69.11;98673.81;4949985;29;20039;-86
2022/07/11 02:15:57;;;;;;;0.50;0.50;;;;;;;16.17;69.48;98684.25;4951987;29;20043;-85
2022/07/11 02:18:24;;;;;;;0.88;0.73;;;;;;;16.05;70.04;98667.50;4947051;28;20099;-86
2022/07/11 02:20:51;;;;;;;0.65;0.63;;;;;;;16.05;70.15;98694.78;4946007;29;20530;-86
2022/07/11 02:23:19;;;;;;;1.05;0.80;;;;;;;15.96;70.96;98684.72;4946186;29;20055;-86
2022/07/11 02:25:47;;;;;;;0.60;0.60;;;;;;;15.99;71.00;98678.97;4945672;29;20423;-86
2022/07/11 02:28:15;;;;;;;0.77;0.50;;;;;;;16.01;70.71;98677.75;4951092;29;20101;-86
2022/07/11 02:30:45;;;;;;;0.63;0.43;;;;;;;16.16;71.14;98677.34;4948405;29;20051;-86
2022/07/11 02:33:15;;;;;;;0.63;0.63;;;;;;;16.05;70.48;98675.44;4967896;28;20058;-86
2022/07/11 02:35:43;;;;;;;0.50;0.50;;;;;;;15.96;72.10;98676.78;4952974;29;20491;-86
2022/07/11 02:38:10;;;;;;;0.60;0.60;;;;;;;16.09;72.43;98686.41;4950828;29;20063;-87
2022/07/11 02:40:37;;;;;;;0.50;0.50;;;;;;;16.13;72.84;98684.91;4949423;28;20503;-87
2022/07/11 02:43:03;;;;;;;0.60;0.60;;;;;;;16.10;73.59;98682.72;4938029;29;20067;-87
2022/07/11 02:45:31;;;;;;;0.40;0.40;;;;;;;16.03;72.86;98673.03;4951723;29;20122;-86
2022/07/11 02:47:57;;;;;;;0.47;0.40;;;;;;;16.01;73.22;98687.50;4962407;28;20074;-87
2022/07/11 02:50:24;;;;;;;0.50;0.50;;;;;;;15.97;73.93;98689.78;4950863;29;20055;-87
2022/07/11 02:52:51;;;;;;;0.50;0.50;;;;;;;15.99;73.98;98693.00;4950470;29;20122;-87
2022/07/11 02:55:17;;;;;;;1.10;0.60;;;;;;;16.06;74.11;98698.22;4935123;29;20067;-87
2022/07/11 02:57:44;;;;;;;0.50;0.40;;;;;;;16.01;73.97;98683.03;4937349;29;20473;-87
2022/07/11 03:00:19;;;;;;;0.57;0.50;;;;;;;16.11;73.81;98689.63;4941479;29;20047;-86
2022/07/11 03:02:46;;;;;;;0.60;0.60;;;;;;;15.92;74.00;98694.13;4947877;28;20928;-87
2022/07/11 03:05:13;;;;;;;0.88;0.68;;;;;;;15.87;75.03;98680.72;4954585;28;20047;-86
2022/07/11 03:07:40;;;;;;;0.50;0.50;;;;;;;15.96;74.98;98687.38;4953989;28;20043;-86
2022/07/11 03:10:07;;;;;;;0.55;0.55;;;;;;;15.98;75.03;98690.59;4954599;28;20467;-87
2022/07/11 03:12:34;;;;;;;0.70;0.70;;;;;;;15.94;74.92;98692.03;4952372;28;20102;-87
2022/07/11 03:15:01;;;;;;;0.63;0.63;;;;;;;15.81;74.52;98687.69;4937845;29;20051;-86
2022/07/11 03:17:29;;;;;;;1.00;0.90;;;;;;;15.75;73.97;98681.44;4952060;29;20995;-87
2022/07/11 03:19:55;;;;;;;0.65;0.65;;;;;;;15.55;75.59;98683.44;4955050;28;20107;-86
2022/07/11 03:22:23;;;;;;;0.75;0.75;;;;;;;15.56;75.60;98690.34;4952547;29;20447;-86
2022/07/11 03:24:50;;;;;;;1.00;0.90;;;;;;;15.47;75.83;98683.69;4954087;28;20051;-87
2022/07/11 03:27:17;;;;;;;0.73;0.60;;;;;;;15.60;75.80;98698.66;4954210;29;20110;-87
2022/07/11 03:29:44;;;;;;;0.70;0.70;;;;;;;15.58;75.54;98701.50;4935301;29;20126;-87
2022/07/11 03:32:11;;;;;;;1.35;0.70;;;;;;;15.39;75.89;98686.63;4949903;29;20106;-87
2022/07/11 03:34:38;;;;;;;0.88;0.50;;;;;;;15.51;76.67;98691.00;4940376;29;20051;-86
2022/07/11 03:37:06;;;;;;;1.42;0.60;;;;;;;15.59;76.33;98689.91;4941743;28;20048;-86
2022/07/11 03:39:33;;;;;;;0.45;0.40;;;;;;;15.70;76.12;98697.16;4952413;28;20035;-86
2022/07/11 03:41:59;;;;;;;0.60;0.40;;;;;;;15.73;76.19;98695.94;4947518;28;20488;-87
2022/07/11 03:44:26;;;;;;;0.50;0.50;;;;;;;15.72;76.13;98694.31;4952827;28;20043;-86
2022/07/11 03:46:52;;;;;;;0.60;0.52;;;;;;;15.65;76.37;98697.03;4947985;29;20475;-87
2022/07/11 03:49:19;;;;;;;0.35;0.35;;;;;;;15.64;76.19;98691.94;4951829;29;20048;-86
2022/07/11 03:51:46;;;;;;;0.40;0.40;;;;;;;15.73;76.66;98696.72;4951318;29;20042;-86
2022/07/11 03:54:12;;;;;;;0.30;0.30;;;;;;;15.84;76.60;98703.16;4948377;29;20099;-86
2022/07/11 03:56:39;;;;;;;0.20;0.20;;;;;;;15.79;77.36;98690.56;4953497;28;20106;-86
2022/07/11 03:59:06;;;;;;;0.40;0.40;;;;;;;15.82;76.78;98688.50;4965498;28;20039;-87
2022/07/11 04:01:32;;;;;;;1.38;0.43;;;;;;;15.81;76.87;98689.53;4951204;29;20067;-87
2022/07/11 04:03:59;;;;;;;0.70;0.70;;;;;;;15.57;77.81;98694.59;4953224;29;20051;-88
2022/07/11 04:06:27;;;;;;;0.55;0.50;;;;;;;15.61;78.02;98695.81;4953750;28;20090;-87
2022/07/11 04:08:54;;;;;;;0.55;0.40;;;;;;;15.71;79.23;98701.44;4947816;29;20079;-87
2022/07/11 04:11:21;;;;;;;0.75;0.60;;;;;;;15.64;78.94;98687.44;4967639;28;20051;-87
2022/07/11 04:13:47;;;;;;;0.40;0.30;;;;;;;15.72;78.33;98681.91;4938312;29;20052;-87
2022/07/11 04:16:14;;;;;;;0.80;0.50;;;;;;;15.71;78.38;98672.34;4944372;29;20085;-86
2022/07/11 04:18:41;;;;;;;0.77;0.70;;;;;;;15.57;78.59;98673.44;4943279;29;20428;-86
2022/07/11 04:21:07;;;;;;;0.73;0.60;;;;;;;15.67;78.45;98678.28;4936283;29;20602;-86
2022/07/11 04:23:36;;;;;;;0.65;0.40;;;;;;;15.67;78.39;98678.28;4953777;29;20060;-86
2022/07/11 04:26:03;;;;;;;0.40;0.40;;;;;;;15.72;78.23;98681.09;4968266;28;20055;-86
2022/07/11 04:28:30;;;;;;;0.52;0.50;;;;;;;15.73;78.83;98688.81;4953273;28;20086;-87
2022/07/11 04:30:58;;;;;;;0.75;0.50;;;;;;;15.73;77.76;98688.81;4949298;29;20062;-87
2022/07/11 04:33:24;;;;;;;0.50;0.50;;;;;;;15.70;78.28;98694.50;4964207;28;20482;-87
2022/07/11 04:35:51;;;;;;;0.68;0.60;;;;;;;15.63;78.44;98685.84;4948682;29;20543;-88
2022/07/11 04:38:21;;;;;;;2.45;0.90;;;;;;;15.44;78.82;98694.72;4941040;29;20039;-87
2022/07/11 04:40:48;;;;;;;1.50;1.10;;;;;;;15.38;79.33;98693.75;4944178;28;20086;-87
2022/07/11 04:43:16;;;;;;;1.25;0.70;;;;;;;15.46;80.26;98692.66;4934225;29;20593;-87
2022/07/11 04:45:43;;;;;;;0.73;0.55;;;;;;;15.63;79.92;98700.91;4956924;28;20039;-87
2022/07/11 04:48:10;;;;;;;0.75;0.75;;;;;;;15.74;79.68;98698.34;4934959;29;20040;-87
2022/07/11 04:50:37;;;;;;;0.50;0.50;;;;;;;15.87;79.53;98689.47;4949411;28;20479;-87
2022/07/11 04:53:04;;;;;;;0.60;0.55;;;;;;;15.94;79.24;98684.09;4943373;28;20039;-87
2022/07/11 04:55:31;;;;;;;1.88;0.80;;;;;;;15.92;77.70;98686.97;4943743;28;20082;-87
2022/07/11 04:57:58;;;;;;;1.15;1.05;;;;;;;15.64;78.28;98684.81;4942745;28;20051;-87
2022/07/11 05:00:39;;;;;;;0.60;0.60;;;;;;;15.78;79.13;98712.75;4945682;28;20071;-87
2022/07/11 05:03:08;;;;;;;0.82;0.50;;;;;;;15.93;78.73;98711.59;4945909;29;20051;-87
2022/07/11 05:05:35;;;;;;;0.55;0.55;;;;;;;15.98;78.59;98717.84;4944837;29;20593;-86
2022/07/11 05:08:03;;;;;;;0.60;0.60;;;;;;;16.04;78.42;98710.88;4941083;28;20043;-86
2022/07/11 05:10:33;;;;;;;0.88;0.50;;;;;;;16.06;78.58;98722.84;4934763;29;20238;-86
2022/07/11 05:12:59;;;;;;;0.50;0.50;;;;;;;16.12;78.71;98725.66;4938832;29;20052;-86
2022/07/11 05:15:26;;;;;;;0.80;0.70;;;;;;;16.06;77.72;98735.25;4945312;29;20067;-86
2022/07/11 05:17:53;;;;;;;0.57;0.57;;;;;;;16.20;79.18;98725.38;4949464;29;20122;-86
2022/07/11 05:20:19;;;;;;;0.50;0.50;;;;;;;16.21;77.62;98721.69;4952375;28;20058;-87
2022/07/11 05:22:46;;;;;;;0.47;0.47;;;;;;;16.17;77.81;98726.59;4945724;28;20173;-86
2022/07/11 05:25:13;;;;;;;0.70;0.70;;;;;;;16.24;77.00;98731.81;4956416;29;20864;-87
2022/07/11 05:27:40;;;;;;;0.80;0.80;;;;;;;16.11;75.85;98724.84;4949497;28;20107;-86
2022/07/11 05:30:07;;;;;;;1.15;0.75;;;;;;;16.21;77.59;98727.78;4955682;29;20047;-86
2022/07/11 05:32:34;;;;;;;1.02;0.50;;;;;;;16.33;77.16;98736.63;4949510;28;20055;-86
2022/07/11 05:35:04;;;;;;;0.60;0.60;;;;;;;16.32;76.20;98729.72;4950372;28;20047;-86
2022/07/11 05:37:31;;;;;;;1.30;0.80;;;;;;;16.21;76.45;98726.97;4950408;29;20047;-86
2022/07/11 05:39:58;;;;;;;0.93;0.90;;;;;;;16.12;77.24;98728.28;4945431;29;20047;-86
2022/07/11 05:42:32;;;;;;;1.35;1.20;;;;;;;16.08;76.69;98727.94;4948640;29;20388;-86
2022/07/11 05:44:58;;;;;;;0.80;0.80;;;;;;;16.24;77.86;98726.53;4949319;29;20456;-85
2022/07/11 05:47:25;;;;;;;1.20;0.90;;;;;;;16.34;76.22;98737.41;4952945;29;20059;-85
2022/07/11 05:49:52;;;;;;;0.90;0.80;;;;;;;16.31;77.02;98743.97;4940970;29;20122;-86
2022/07/11 05:52:18;;;;;;;0.80;0.80;;;;;;;16.45;77.10;98727.94;4955646;28;20051;-86
2022/07/11 05:54:45;;;;;;;0.90;0.80;;;;;;;16.57;76.53;98726.16;4956071;28;20043;-86
2022/07/11 05:57:12;;;;;;;0.60;0.60;;;;;;;16.72;76.24;98729.25;4954247;29;20040;-86
2022/07/11 05:59:38;;;;;;;1.20;1.10;;;;;;;16.54;74.92;98726.59;4947935;29;20051;-86
2022/07/11 06:02:07;;;;;;;0.80;0.80;;;;;;;16.56;76.98;98735.94;4940956;29;20078;-85
2022/07/11 06:04:34;;;;;;;1.83;1.00;;;;;;;16.50;75.66;98714.84;4951041;28;20067;-87
2022/07/11 06:07:01;;;;;;;0.70;0.70;;;;;;;16.71;76.03;98727.63;4958638;28;20047;-86
2022/07/11 06:09:27;;;;;;;0.82;0.82;;;;;;;16.85;76.19;98725.59;4955572;28;20067;-86
2022/07/11 06:11:54;;;;;;;1.00;0.90;;;;;;;16.88;73.91;98711.94;4953429;28;20147;-86
2022/07/11 06:14:22;;;;;;;0.70;0.70;;;;;;;16.93;75.23;98720.00;4951504;29;20059;-85
2022/07/11 06:16:49;;;;;;;0.75;0.70;;;;;;;16.95;73.43;98717.13;4946303;29;20048;-85
2022/07/11 06:19:16;;;;;;;0.70;0.70;;;;;;;17.04;73.88;98716.59;4948002;28;20123;-86
2022/07/11 06:21:43;;;;;;;1.88;1.50;;;;;;;16.85;73.14;98725.59;4951512;29;20043;-84
2022/07/11 06:24:10;;;;;;;1.00;0.90;;;;;;;16.94;73.92;98720.81;4953085;28;20050;-85
2022/07/11 06:26:37;;;;;;;0.80;0.73;;;;;;;17.09;73.14;98721.19;4948126;28;20055;-85
2022/07/11 06:29:04;;;;;;;1.02;0.90;;;;;;;17.16;72.21;98724.56;4946818;29;20472;-86
2022/07/11 06:31:30;;;;;;;0.90;0.90;;;;;;;17.22;73.56;98726.31;4950450;28;20083;-86
2022/07/11 06:33:57;;;;;;;1.23;0.90;;;;;;;17.17;72.06;98728.84;4952137;28;20394;-85
2022/07/11 06:36:25;;;;;;;0.82;0.82;;;;;;;17.24;72.42;98737.50;4938857;29;20561;-86
2022/07/11 06:38:53;;;;;;;0.90;0.90;;;;;;;17.18;72.67;98730.44;4950070;29;20075;-85
2022/07/11 06:41:21;;;;;;;1.08;0.80;;;;;;;17.28;73.97;98735.22;4969672;28;20110;-84
2022/07/11 06:43:48;;;;;;;0.70;0.70;;;;;;;17.39;73.98;98734.41;4945488;29;20047;-85
2022/07/11 06:46:15;;;;;;;0.80;0.80;;;;;;;17.38;72.52;98733.59;4939696;29;20059;-86
2022/07/11 06:48:42;;;;;;;0.90;0.73;;;;;;;17.55;73.34;98740.91;4955402;29;20039;-86
2022/07/11 06:51:09;;;;;;;0.63;0.63;;;;;;;17.68;71.90;98738.03;4951735;28;20059;-86
2022/07/11 06:53:36;;;;;;;0.57;0.57;;;;;;;17.72;71.15;98733.91;4940207;28;20047;-85
2022/07/11 06:56:03;;;;;;;0.65;0.65;;;;;;;17.62;71.72;98728.31;4946169;29;20040;-86
2022/07/11 06:58:32;;;;;;;0.80;0.80;;;;;;;17.75;71.12;98741.44;4936788;28;20056;-85
2022/07/11 07:01:17;;;;;;;0.73;0.73;;;;;;;17.84;70.80;98737.38;4943478;29;20547;-85
2022/07/11 07:03:45;;;;;;;0.52;0.52;;;;;;;18.02;73.18;98735.66;4940348;28;20050;-86
2022/07/11 07:06:14;;;;;;;0.70;0.70;;;;;;;18.09;70.45;98720.41;4948468;29;20686;-86
2022/07/11 07:08:40;;;;;;;0.60;0.60;;;;;;;18.11;68.00;98727.09;4949599;28;20067;-85
2022/07/11 07:11:07;;;;;;;1.02;0.50;;;;;;;18.38;69.87;98727.41;4950684;29;20484;-86
2022/07/11 07:13:35;;;;;;;0.50;0.50;;;;;;;18.58;67.66;98731.50;4950104;29;20043;-85
2022/07/11 07:16:02;;;;;;;0.68;0.68;;;;;;;18.41;65.78;98732.25;4952308;28;20090;-86
2022/07/11 07:18:29;;;;;;;0.50;0.30;;;;;;;18.49;67.35;98727.59;4961104;28;20040;-85
2022/07/11 07:20:56;;;;;;;0.50;0.50;;;;;;;18.39;67.68;98739.63;4946647;29;20047;-85
2022/07/11 07:23:22;;;;;;;0.55;0.55;;;;;;;18.33;66.41;98729.13;4953491;28;20043;-85
2022/07/11 07:25:49;;;;;;;0.90;0.80;;;;;;;18.34;66.79;98739.50;4954422;29;20043;-85
2022/07/11 07:28:16;;;;;;;0.45;0.45;;;;;;;18.27;68.54;98746.00;4945681;29;20102;-85
2022/07/11 07:30:43;;;;;;;0.47;0.47;;;;;;;18.39;66.54;98736.16;4940450;29;20044;-86
2022/07/11 07:33:12;;;;;;;0.50;0.50;;;;;;;18.48;67.00;98726.81;4940470;29;20078;-86
2022/07/11 07:35:39;;;;;;;0.30;0.30;;;;;;;18.62;68.58;98722.81;4935662;29;20044;-84
2022/07/11 07:38:06;;;;;;;0.40;0.40;;;;;;;18.66;66.54;98728.47;4951235;29;20133;-84
2022/07/11 07:40:32;;;;;;;0.40;0.40;;;;;;;18.85;65.78;98719.31;4940852;28;20168;-86
2022/07/11 07:43:01;;;;;;;0.45;0.45;;;;;;;19.11;64.27;98727.72;4945291;29;20098;-86
2022/07/11 07:45:28;;;;;;;0.30;0.30;;;;;;;19.20;65.32;98728.97;4932486;29;20051;-85
2022/07/11 07:47:54;;;;;;;0.45;0.40;;;;;;;19.35;63.94;98731.88;4946138;29;20067;-86
2022/07/11 07:50:22;;;;;;;0.63;0.38;;;;;;;19.41;62.87;98728.25;4949855;29;20562;-84
2022/07/11 07:52:49;;;;;;;0.40;0.40;;;;;;;19.62;63.07;98737.41;4952392;29;20043;-85
2022/07/11 07:55:16;;;;;;;0.10;0.10;;;;;;;19.62;63.05;98720.63;4949735;29;20384;-85
2022/07/11 07:57:43;;;;;;;0.30;0.30;;;;;;;19.44;63.90;98729.63;4948587;29;20101;-85
2022/07/11 08:03:08;;;;;;;0.50;0.50;;;;;;;18.88;64.81;98734.75;4947029;29;20071;-85
2022/07/11 08:05:35;;;;;;;0.52;0.52;;;;;;;18.69;66.64;98738.66;4946709;28;20094;-85
2022/07/11 08:08:03;;;;;;;0.50;0.50;;;;;;;18.50;67.79;98742.50;4935756;29;20047;-85
2022/07/11 08:10:30;;;;;;;0.88;0.60;;;;;;;18.05;68.69;98741.31;4949383;28;20447;-86
2022/07/11 08:12:57;;;;;;;0.40;0.40;;;;;;;17.74;70.72;98736.31;4952897;28;20098;-86
2022/07/11 08:15:24;;;;;;;0.40;0.40;;;;;;;17.76;72.41;98740.38;4954536;28;20062;-88
2022/07/11 08:17:52;;;;;;;0.57;0.40;;;;;;;17.77;72.60;98739.34;4953813;28;20106;-86
2022/07/11 08:20:19;;;;;;;0.50;0.50;;;;;;;17.81;74.80;98742.31;4937287;29;20039;-87
2022/07/11 08:22:46;;;;;;;0.50;0.50;;;;;;;17.52;73.59;98750.13;4936639;29;20102;-91
2022/07/11 08:25:13;;;;;;;0.40;0.40;;;;;;;17.42;75.31;98749.06;4954278;28;20047;-89
2022/07/11 08:27:41;;;;;;;0.45;0.45;;;;;;;17.36;75.39;98751.59;4941271;28;20051;-88
2022/07/11 08:30:09;;;;;;;0.32;0.32;;;;;;;17.48;77.01;98756.13;4934968;29;20515;-87
2022/07/11 08:32:40;;;;;;;0.50;0.50;;;;;;;17.47;77.39;98747.34;4969005;28;20054;-90
2022/07/11 08:35:11;;;;;;;0.47;0.47;;;;;;;17.62;77.48;98758.31;4953623;29;20408;-90
2022/07/11 08:37:38;;;;;;;0.50;0.50;;;;;;;17.60;77.85;98746.31;4954941;28;20054;-91
2022/07/11 08:40:05;;;;;;;0.60;0.60;;;;;;;17.57;78.71;98766.16;4953773;29;20138;-89
2022/07/11 08:42:41;;;;;;;0.80;0.80;;;;;;;17.46;77.95;98756.34;4948488;29;20511;-90
2022/07/11 08:45:17;;;;;;;0.82;0.82;;;;;;;17.33;77.73;98767.13;4944618;29;20105;-90
2022/07/11 08:47:44;;;;;;;1.20;0.90;;;;;;;17.33;79.04;98765.31;4934376;29;20099;-89
2022/07/11 08:50:13;;;;;;;0.80;0.80;;;;;;;17.26;78.92;98751.31;4947904;29;20100;-89
2022/07/11 08:52:40;;;;;;;0.80;0.80;;;;;;;17.19;78.84;98755.91;4934895;29;20054;-90
2022/07/11 08:55:08;;;;;;;0.65;0.65;;;;;;;17.25;78.35;98768.28;4949191;29;20099;-89
2022/07/11 08:57:39;;;;;;;1.05;1.00;;;;;;;17.10;78.23;98766.03;4948963;28;20059;-89
2022/07/11 09:00:09;;;;;;;0.55;0.40;;;;;;;17.27;80.00;98763.56;4953950;29;20039;-90
2022/07/11 09:02:36;;;;;;;0.50;0.50;;;;;;;17.33;79.42;98762.66;4937127;29;20039;-90
2022/07/11 09:05:07;;;;;;;0.60;0.60;;;;;;;17.33;78.50;98762.66;4953250;29;20283;-90
2022/07/11 09:07:42;;;;;;;0.50;0.50;;;;;;;17.55;77.90;98770.88;4970451;28;20031;-89
2022/07/11 09:10:10;;;;;;;0.50;0.40;;;;;;;17.70;76.98;98767.00;4958974;28;20040;-88
2022/07/11 09:12:36;;;;;;;0.45;0.40;;;;;;;17.47;72.23;98757.97;4947699;29;20039;-90
2022/07/11 09:15:04;;;;;;;0.20;0.20;;;;;;;17.71;74.28;98764.09;4965505;28;20052;-88
2022/07/11 09:17:31;;;;;;;0.20;0.20;;;;;;;17.92;75.63;98768.06;4952344;29;20046;-90
2022/07/11 09:19:58;;;;;;;0.10;0.10;;;;;;;18.00;75.50;98761.63;4935981;29;20061;-89
2022/07/11 09:25:20;;;;;;;0.10;0.10;;;;;;;17.90;73.85;98768.28;4949726;29;20052;-88
2022/07/11 09:28:01;;;;;;;0.30;0.30;;;;;;;17.92;75.51;98765.41;4949787;29;20075;-88
2022/07/11 09:30:39;;;;;;;0.13;0.13;;;;;;;18.07;75.79;98762.31;4935746;29;20391;-88
2022/07/11 09:33:09;;;;;;;0.17;0.17;;;;;;;18.26;74.52;98757.66;4948395;29;20039;-87
2022/07/11 09:35:42;;;;;;;0.22;0.22;;;;;;;18.94;72.64;98755.06;4954058;28;20043;-91
2022/07/11 09:38:12;;;;;;;0.20;0.20;;;;;;;19.32;67.67;98743.00;4951039;29;20106;-90
2022/07/11 09:40:44;;;;;;;0.27;0.27;;;;;;;19.51;70.15;98757.69;4965383;28;20063;-87
2022/07/11 09:43:10;;;;;;;0.20;0.20;;;;;;;19.32;67.68;98753.66;4943534;29;20058;-87
2022/07/11 09:45:39;;;;;;;0.20;0.20;;;;;;;19.60;69.07;98759.97;4955865;28;20047;-87
2022/07/11 09:48:11;;;;;;;0.35;0.32;;;;;;;19.53;67.56;98755.56;4952757;28;20048;-86
2022/07/11 09:50:41;;;;;;;0.20;0.20;;;;;;;19.62;68.87;98763.22;4939558;28;20048;-86
2022/07/11 09:53:16;;;;;;;0.20;0.20;;;;;;;19.71;69.34;98759.09;4950584;29;20480;-86
2022/07/11 09:55:46;;;;;;;0.80;0.30;;;;;;;19.41;68.31;98765.50;4944996;29;20497;-86
2022/07/11 09:58:18;;;;;;;0.38;0.32;;;;;;;19.32;69.47;98768.78;4948300;28;20070;-87
2022/07/11 10:00:53;;;;;;;0.35;0.35;;;;;;;19.01;70.51;98762.09;4950857;28;20046;-86
2022/07/11 10:03:25;;;;;;;0.80;0.40;;;;;;;18.78;73.43;98769.13;4949614;28;20078;-87
2022/07/11 10:06:12;;;;;;;0.32;0.32;;;;;;;18.68;73.55;98755.66;4949977;29;20495;-88
2022/07/11 10:08:39;;;;;;;0.40;0.40;;;;;;;18.59;74.44;98792.38;4950283;28;20043;-88
2022/07/11 10:11:05;;;;;;;0.50;0.50;;;;;;;18.42;75.25;98772.91;4953868;29;20043;-89
2022/07/11 10:13:32;;;;;;;0.98;0.47;;;;;;;18.41;75.88;98788.03;4939610;28;20052;-91
2022/07/11 10:16:07;;;;;;;0.45;0.32;;;;;;;18.39;76.52;98787.44;4944334;29;20054;-91
2022/07/11 10:19:08;;;;;;;0.90;0.50;;;;;;;18.32;75.37;98786.75;4954059;29;20138;-92
2022/07/11 10:22:09;;;;;;;0.68;0.68;;;;;;;18.19;77.01;98797.63;4954586;29;20456;-89
2022/07/11 10:24:54;;;;;;;;;;;;;;;18.12;77.36;98796.94;4956375;29;20043;-88
2022/07/11 10:27:35;;;;;;;0.40;0.40;;;;;;;18.19;77.78;98793.13;4971287;28;19973;-89
2022/07/11 10:30:07;;;;;;;0.50;0.50;;;;;;;18.26;76.95;98792.19;4940412;29;20047;-87
2022/07/11 10:33:06;;;;;;;0.32;0.32;;;;;;;18.41;76.97;98801.31;4955266;29;20050;-88
2022/07/11 10:35:33;;;;;;;0.40;0.40;;;;;;;18.54;75.52;98794.13;4955634;29;20043;-88
2022/07/11 10:38:06;;;;;;;0.50;0.50;;;;;;;18.51;75.77;98806.00;4955895;29;20404;-88
2022/07/11 10:40:44;;;;;;;0.43;0.40;;;;;;;18.46;76.14;98805.88;4943719;29;20048;-91
2022/07/11 10:43:33;;;;;;;0.52;0.52;;;;;;;18.23;76.12;98797.94;4955657;29;20459;-90
2022/07/11 10:46:18;;;;;;;0.52;0.52;;;;;;;18.22;76.41;98805.09;4940657;29;20523;-90
2022/07/11 10:48:55;;;;;;;0.88;0.60;;;;;;;18.36;75.09;98798.53;4954748;29;20035;-88
2022/07/11 10:51:33;;;;;;;1.38;0.55;;;;;;;18.32;76.75;98801.88;4952884;29;20051;-91
2022/07/11 10:54:48;;;;;;;0.43;0.43;;;;;;;18.28;75.11;98806.84;4935487;29;20476;-89
2022/07/11 10:57:27;;;;;;;0.45;0.45;;;;;;;18.25;74.91;98802.00;4936971;29;20098;-91
2022/07/11 11:00:09;;;;;;;1.27;0.40;;;;;;;18.48;74.61;98811.00;4934200;29;20485;-90
2022/07/11 11:03:06;;;;;;;0.40;0.40;;;;;;;18.57;75.87;98801.59;4943883;29;20054;-91
2022/07/11 11:05:49;;;;;;;0.30;0.30;;;;;;;18.77;74.70;98799.38;4951408;29;20042;-89
2022/07/11 11:08:35;;;;;;;0.65;0.40;;;;;;;18.86;73.83;98798.00;4947462;29;20510;-91
2022/07/11 11:11:29;;;;;;;0.30;0.30;;;;;;;19.09;75.04;98790.97;4942253;28;20086;-89
2022/07/11 11:14:15;;;;;;;0.25;0.25;;;;;;;19.44;74.34;98786.31;4934619;29;20059;-88
2022/07/11 11:16:42;;;;;;;0.25;0.25;;;;;;;19.68;70.76;98786.19;4947734;29;20054;-87
2022/07/11 11:19:46;;;;;;;0.30;0.28;;;;;;;19.77;68.50;98782.06;4951872;28;20043;-87
2022/07/11 11:22:15;;;;;;;0.20;0.20;;;;;;;19.78;69.92;98775.69;4946780;29;20043;-86
2022/07/11 11:24:52;;;;;;;0.20;0.20;;;;;;;19.81;69.65;98771.75;4950788;29;20043;-87
2022/07/11 11:28:03;;;;;;;0.80;0.30;;;;;;;19.61;68.82;98774.88;4935205;29;20055;-85
2022/07/11 11:30:32;;;;;;;0.20;0.20;;;;;;;19.38;69.30;98767.84;4937796;29;20055;-86
2022/07/11 11:32:58;;;;;;;0.20;0.20;;;;;;;19.43;73.62;98774.06;4952983;29;20142;-87
2022/07/11 11:35:25;;;;;;;0.20;0.20;;;;;;;19.51;69.72;98778.16;4936067;29;20107;-87
2022/07/11 11:37:58;;;;;;;0.22;0.22;;;;;;;19.22;69.75;98774.72;4943145;29;20102;-87
2022/07/11 11:40:24;;;;;;;0.43;0.40;;;;;;;19.13;69.43;98769.00;4974424;28;20110;-87
2022/07/11 11:42:51;;;;;;;0.17;0.17;;;;;;;19.31;70.29;98772.47;4954030;28;20047;-89
2022/07/11 11:45:18;;;;;;;0.30;0.30;;;;;;;19.72;71.83;98776.66;4968929;28;20047;-88
2022/07/11 11:47:51;;;;;;;0.32;0.30;;;;;;;19.51;68.01;98755.03;4950235;28;20930;-89
2022/07/11 11:50:18;;;;;;;0.30;0.30;;;;;;;19.61;69.74;98777.53;4954016;28;20043;-88
2022/07/11 11:52:45;;;;;;;0.45;0.40;;;;;;;19.40;67.97;98769.19;4933300;29;20162;-87